Garretson, South Dakota
Current Conditions -  °F | °C
As of 7:56 PM on Saturday 20 Dec 2014 (Local Time) from KFSD Reporting Station
Haze Haze  
Wind Chill: 19°   Ceiling: 300
Heat Index: 30°   Visibility: 1.7mi
Dew Point: 29°   Wind: 15mph
Humidity: 96%   Direction: 160°SSE
Pressure: 29.99"   Gusts: NA
Location:  43.72°N, 96.5°W
Report Text: KFSD 210156Z 16013KT 1 3/4SM BR OVC003 M01/M02 A2999 RMK AO2 SFC VIS 3 SLP173 T10111017
Loading
Personal Weather Stations






























Interactive Weather Map New forecast layout! Learn more

10-Day Weather Forecast

Advertisements
Track Severe Weather on mobile